sensor_id;sensor_type;location;lat;lon;timestamp;temperature;humidity
3262;DHT22;1643;47.746;9.000;2024-02-21T00:02:06;6.30;99.90
3262;DHT22;1643;47.746;9.000;2024-02-21T00:04:31;6.30;99.90
3262;DHT22;1643;47.746;9.000;2024-02-21T00:06:57;6.30;99.90
3262;DHT22;1643;47.746;9.000;2024-02-21T00:09:23;6.30;99.90
3262;DHT22;1643;47.746;9.000;2024-02-21T00:11:48;6.30;99.90
3262;DHT22;1643;47.746;9.000;2024-02-21T00:14:14;6.30;99.90
3262;DHT22;1643;47.746;9.000;2024-02-21T00:16:39;6.30;99.90
3262;DHT22;1643;47.746;9.000;2024-02-21T00:19:05;6.30;99.90
3262;DHT22;1643;47.746;9.000;2024-02-21T00:21:31;6.20;99.90
3262;DHT22;1643;47.746;9.000;2024-02-21T00:23:56;6.20;99.90
3262;DHT22;1643;47.746;9.000;2024-02-21T00:26:22;6.20;99.90
3262;DHT22;1643;47.746;9.000;2024-02-21T00:28:48;6.20;99.90
3262;DHT22;1643;47.746;9.000;2024-02-21T00:31:13;6.20;99.90
3262;DHT22;1643;47.746;9.000;2024-02-21T00:33:39;6.20;99.90
3262;DHT22;1643;47.746;9.000;2024-02-21T00:36:05;6.20;99.90
3262;DHT22;1643;47.746;9.000;2024-02-21T00:38:30;6.20;99.90
3262;DHT22;1643;47.746;9.000;2024-02-21T00:40:56;6.10;99.90
3262;DHT22;1643;47.746;9.000;2024-02-21T00:43:22;6.10;99.90
3262;DHT22;1643;47.746;9.000;2024-02-21T00:45:49;6.10;99.90
3262;DHT22;1643;47.746;9.000;2024-02-21T00:48:15;6.10;99.90
3262;DHT22;1643;47.746;9.000;2024-02-21T00:50:41;6.10;99.90
3262;DHT22;1643;47.746;9.000;2024-02-21T00:53:06;6.00;99.90
3262;DHT22;1643;47.746;9.000;2024-02-21T00:55:32;6.10;99.90
3262;DHT22;1643;47.746;9.000;2024-02-21T00:57:58;6.10;99.90
3262;DHT22;1643;47.746;9.000;2024-02-21T01:00:23;6.10;99.90
3262;DHT22;1643;47.746;9.000;2024-02-21T01:02:49;6.10;99.90
3262;DHT22;1643;47.746;9.000;2024-02-21T01:05:14;6.10;99.90
3262;DHT22;1643;47.746;9.000;2024-02-21T01:07:40;6.10;99.90
3262;DHT22;1643;47.746;9.000;2024-02-21T01:10:06;6.10;99.90
3262;DHT22;1643;47.746;9.000;2024-02-21T01:12:32;6.10;99.90
3262;DHT22;1643;47.746;9.000;2024-02-21T01:14:58;6.10;99.90
3262;DHT22;1643;47.746;9.000;2024-02-21T01:17:23;6.10;99.90
3262;DHT22;1643;47.746;9.000;2024-02-21T01:19:49;6.10;99.90
3262;DHT22;1643;47.746;9.000;2024-02-21T01:22:14;6.10;99.90
3262;DHT22;1643;47.746;9.000;2024-02-21T01:24:41;6.10;99.90
3262;DHT22;1643;47.746;9.000;2024-02-21T01:27:07;6.10;99.90
3262;DHT22;1643;47.746;9.000;2024-02-21T01:29:32;6.20;99.90
3262;DHT22;1643;47.746;9.000;2024-02-21T01:31:58;6.20;99.90
3262;DHT22;1643;47.746;9.000;2024-02-21T01:34:24;6.20;99.90
3262;DHT22;1643;47.746;9.000;2024-02-21T01:36:49;6.20;99.90
3262;DHT22;1643;47.746;9.000;2024-02-21T01:39:15;6.20;99.90
3262;DHT22;1643;47.746;9.000;2024-02-21T01:41:41;6.10;99.90
3262;DHT22;1643;47.746;9.000;2024-02-21T01:44:07;6.10;99.90
3262;DHT22;1643;47.746;9.000;2024-02-21T01:46:33;6.20;99.90
3262;DHT22;1643;47.746;9.000;2024-02-21T01:48:59;6.10;99.90
3262;DHT22;1643;47.746;9.000;2024-02-21T01:51:25;6.10;99.90
3262;DHT22;1643;47.746;9.000;2024-02-21T01:53:52;6.10;99.90
3262;DHT22;1643;47.746;9.000;2024-02-21T01:56:18;6.10;99.90
3262;DHT22;1643;47.746;9.000;2024-02-21T01:58:45;6.10;99.90
3262;DHT22;1643;47.746;9.000;2024-02-21T02:01:12;6.10;99.90
3262;DHT22;1643;47.746;9.000;2024-02-21T02:03:37;6.10;99.90
3262;DHT22;1643;47.746;9.000;2024-02-21T02:06:05;6.10;99.90
3262;DHT22;1643;47.746;9.000;2024-02-21T02:08:31;6.10;99.90
3262;DHT22;1643;47.746;9.000;2024-02-21T02:10:57;6.20;99.90
3262;DHT22;1643;47.746;9.000;2024-02-21T02:13:23;6.20;99.90
3262;DHT22;1643;47.746;9.000;2024-02-21T02:15:50;6.20;99.90
3262;DHT22;1643;47.746;9.000;2024-02-21T02:18:16;6.20;99.90
3262;DHT22;1643;47.746;9.000;2024-02-21T02:20:44;6.10;99.90
3262;DHT22;1643;47.746;9.000;2024-02-21T02:23:21;6.10;99.90
3262;DHT22;1643;47.746;9.000;2024-02-21T02:25:47;6.10;99.90
3262;DHT22;1643;47.746;9.000;2024-02-21T02:28:14;6.10;99.90
3262;DHT22;1643;47.746;9.000;2024-02-21T02:30:40;6.10;99.90
3262;DHT22;1643;47.746;9.000;2024-02-21T02:33:06;6.10;99.90
3262;DHT22;1643;47.746;9.000;2024-02-21T02:35:32;6.10;99.90
3262;DHT22;1643;47.746;9.000;2024-02-21T02:37:58;6.10;99.90
3262;DHT22;1643;47.746;9.000;2024-02-21T02:40:24;6.10;99.90
3262;DHT22;1643;47.746;9.000;2024-02-21T02:42:50;6.10;99.90
3262;DHT22;1643;47.746;9.000;2024-02-21T02:45:16;6.10;99.90
3262;DHT22;1643;47.746;9.000;2024-02-21T02:47:44;6.10;99.90
3262;DHT22;1643;47.746;9.000;2024-02-21T02:50:11;6.10;99.90
3262;DHT22;1643;47.746;9.000;2024-02-21T02:52:36;6.10;99.90
3262;DHT22;1643;47.746;9.000;2024-02-21T02:55:03;6.10;99.90
3262;DHT22;1643;47.746;9.000;2024-02-21T02:57:28;6.00;99.90
3262;DHT22;1643;47.746;9.000;2024-02-21T02:59:54;6.00;99.90
3262;DHT22;1643;47.746;9.000;2024-02-21T03:02:19;6.10;99.90
3262;DHT22;1643;47.746;9.000;2024-02-21T03:04:45;6.10;99.90
3262;DHT22;1643;47.746;9.000;2024-02-21T03:07:11;6.10;99.90
3262;DHT22;1643;47.746;9.000;2024-02-21T03:09:37;6.10;99.90
3262;DHT22;1643;47.746;9.000;2024-02-21T03:12:04;6.20;99.90
3262;DHT22;1643;47.746;9.000;2024-02-21T03:14:30;6.10;99.90
3262;DHT22;1643;47.746;9.000;2024-02-21T03:16:56;6.10;99.90
3262;DHT22;1643;47.746;9.000;2024-02-21T03:19:22;6.10;99.90
3262;DHT22;1643;47.746;9.000;2024-02-21T03:21:48;6.10;99.90
3262;DHT22;1643;47.746;9.000;2024-02-21T03:24:15;6.10;99.90
3262;DHT22;1643;47.746;9.000;2024-02-21T03:26:41;6.00;99.90
3262;DHT22;1643;47.746;9.000;2024-02-21T03:29:07;6.00;99.90
3262;DHT22;1643;47.746;9.000;2024-02-21T03:31:34;6.00;99.90
3262;DHT22;1643;47.746;9.000;2024-02-21T03:34:00;6.10;99.90
3262;DHT22;1643;47.746;9.000;2024-02-21T03:36:26;6.10;99.90
3262;DHT22;1643;47.746;9.000;2024-02-21T03:38:51;6.20;99.90
3262;DHT22;1643;47.746;9.000;2024-02-21T03:41:17;6.00;99.90
3262;DHT22;1643;47.746;9.000;2024-02-21T03:43:43;6.00;99.90
3262;DHT22;1643;47.746;9.000;2024-02-21T03:46:08;6.10;99.90
3262;DHT22;1643;47.746;9.000;2024-02-21T03:48:34;6.00;99.90
3262;DHT22;1643;47.746;9.000;2024-02-21T03:51:01;6.00;99.90
3262;DHT22;1643;47.746;9.000;2024-02-21T03:53:26;6.00;99.90
3262;DHT22;1643;47.746;9.000;2024-02-21T03:55:52;6.00;99.90
3262;DHT22;1643;47.746;9.000;2024-02-21T03:58:17;5.90;99.90
3262;DHT22;1643;47.746;9.000;2024-02-21T04:00:43;6.00;99.90
3262;DHT22;1643;47.746;9.000;2024-02-21T04:03:09;6.00;99.90
3262;DHT22;1643;47.746;9.000;2024-02-21T04:05:34;5.90;99.90
3262;DHT22;1643;47.746;9.000;2024-02-21T04:08:00;6.00;99.90
3262;DHT22;1643;47.746;9.000;2024-02-21T04:10:28;6.00;99.90
3262;DHT22;1643;47.746;9.000;2024-02-21T04:12:54;6.00;99.90
3262;DHT22;1643;47.746;9.000;2024-02-21T04:15:19;6.00;99.90
3262;DHT22;1643;47.746;9.000;2024-02-21T04:17:45;6.00;99.90
3262;DHT22;1643;47.746;9.000;2024-02-21T04:20:15;6.10;99.90
3262;DHT22;1643;47.746;9.000;2024-02-21T04:22:44;6.10;99.90
3262;DHT22;1643;47.746;9.000;2024-02-21T04:25:12;6.10;99.90
3262;DHT22;1643;47.746;9.000;2024-02-21T04:27:38;6.10;99.90
3262;DHT22;1643;47.746;9.000;2024-02-21T04:30:05;6.10;99.90
3262;DHT22;1643;47.746;9.000;2024-02-21T04:32:31;6.00;99.90
3262;DHT22;1643;47.746;9.000;2024-02-21T04:34:57;6.10;99.90
3262;DHT22;1643;47.746;9.000;2024-02-21T04:37:22;6.00;99.90
3262;DHT22;1643;47.746;9.000;2024-02-21T04:39:49;6.00;99.90
3262;DHT22;1643;47.746;9.000;2024-02-21T04:42:15;6.00;99.90
3262;DHT22;1643;47.746;9.000;2024-02-21T04:44:41;6.10;99.90
3262;DHT22;1643;47.746;9.000;2024-02-21T04:47:07;6.00;99.90
3262;DHT22;1643;47.746;9.000;2024-02-21T04:49:33;6.00;99.90
3262;DHT22;1643;47.746;9.000;2024-02-21T04:51:58;6.00;99.90
3262;DHT22;1643;47.746;9.000;2024-02-21T04:54:24;6.00;99.90
3262;DHT22;1643;47.746;9.000;2024-02-21T04:56:50;6.00;99.90
3262;DHT22;1643;47.746;9.000;2024-02-21T04:59:16;6.00;99.90
3262;DHT22;1643;47.746;9.000;2024-02-21T05:01:42;6.00;99.90
3262;DHT22;1643;47.746;9.000;2024-02-21T05:04:08;5.90;99.90
3262;DHT22;1643;47.746;9.000;2024-02-21T05:06:40;5.80;99.90
3262;DHT22;1643;47.746;9.000;2024-02-21T05:09:07;5.90;99.90
3262;DHT22;1643;47.746;9.000;2024-02-21T05:11:34;5.80;99.90
3262;DHT22;1643;47.746;9.000;2024-02-21T05:14:00;5.80;99.90
3262;DHT22;1643;47.746;9.000;2024-02-21T05:16:25;5.80;99.90
3262;DHT22;1643;47.746;9.000;2024-02-21T05:18:51;5.80;99.90
3262;DHT22;1643;47.746;9.000;2024-02-21T05:21:17;5.80;99.90
3262;DHT22;1643;47.746;9.000;2024-02-21T05:23:42;5.80;99.90
3262;DHT22;1643;47.746;9.000;2024-02-21T05:26:08;5.80;99.90
3262;DHT22;1643;47.746;9.000;2024-02-21T05:28:34;5.70;99.90
3262;DHT22;1643;47.746;9.000;2024-02-21T05:30:59;5.70;99.90
3262;DHT22;1643;47.746;9.000;2024-02-21T05:33:26;5.70;99.90
3262;DHT22;1643;47.746;9.000;2024-02-21T05:35:51;5.70;99.90
3262;DHT22;1643;47.746;9.000;2024-02-21T05:38:17;5.70;99.90
3262;DHT22;1643;47.746;9.000;2024-02-21T05:40:44;5.70;99.90
3262;DHT22;1643;47.746;9.000;2024-02-21T05:43:10;5.60;99.90
3262;DHT22;1643;47.746;9.000;2024-02-21T05:45:37;5.70;99.90
3262;DHT22;1643;47.746;9.000;2024-02-21T05:48:03;5.70;99.90
3262;DHT22;1643;47.746;9.000;2024-02-21T05:50:29;5.70;99.90
3262;DHT22;1643;47.746;9.000;2024-02-21T05:52:55;5.60;99.90
3262;DHT22;1643;47.746;9.000;2024-02-21T05:55:22;5.60;99.90
3262;DHT22;1643;47.746;9.000;2024-02-21T05:57:48;5.60;99.90
3262;DHT22;1643;47.746;9.000;2024-02-21T06:00:14;5.60;99.90
3262;DHT22;1643;47.746;9.000;2024-02-21T06:02:40;5.50;99.90
3262;DHT22;1643;47.746;9.000;2024-02-21T06:05:07;5.50;99.90
3262;DHT22;1643;47.746;9.000;2024-02-21T06:07:33;5.50;99.90
3262;DHT22;1643;47.746;9.000;2024-02-21T06:10:01;5.40;99.90
3262;DHT22;1643;47.746;9.000;2024-02-21T06:12:27;5.50;99.90
3262;DHT22;1643;47.746;9.000;2024-02-21T06:14:53;5.50;99.90
3262;DHT22;1643;47.746;9.000;2024-02-21T06:17:18;5.50;99.90
3262;DHT22;1643;47.746;9.000;2024-02-21T06:19:44;5.50;99.90
3262;DHT22;1643;47.746;9.000;2024-02-21T06:22:11;5.50;99.90
3262;DHT22;1643;47.746;9.000;2024-02-21T06:24:39;5.50;99.90
3262;DHT22;1643;47.746;9.000;2024-02-21T06:27:05;6.60;99.90
3262;DHT22;1643;47.746;9.000;2024-02-21T06:29:34;5.40;99.90
3262;DHT22;1643;47.746;9.000;2024-02-21T06:32:01;5.40;99.90
3262;DHT22;1643;47.746;9.000;2024-02-21T06:34:27;5.40;99.90
3262;DHT22;1643;47.746;9.000;2024-02-21T06:36:52;5.40;99.90
3262;DHT22;1643;47.746;9.000;2024-02-21T06:39:18;5.40;99.90
3262;DHT22;1643;47.746;9.000;2024-02-21T06:41:43;5.40;99.90
3262;DHT22;1643;47.746;9.000;2024-02-21T06:44:09;5.40;99.90
3262;DHT22;1643;47.746;9.000;2024-02-21T06:46:35;5.40;99.90
3262;DHT22;1643;47.746;9.000;2024-02-21T06:49:02;5.40;99.90
3262;DHT22;1643;47.746;9.000;2024-02-21T06:51:29;5.50;99.90
3262;DHT22;1643;47.746;9.000;2024-02-21T06:53:55;5.50;99.90
3262;DHT22;1643;47.746;9.000;2024-02-21T06:56:22;5.50;99.90
3262;DHT22;1643;47.746;9.000;2024-02-21T06:58:52;5.60;99.90
3262;DHT22;1643;47.746;9.000;2024-02-21T07:01:18;5.50;99.90
3262;DHT22;1643;47.746;9.000;2024-02-21T07:03:43;5.50;99.90
3262;DHT22;1643;47.746;9.000;2024-02-21T07:06:09;5.60;99.90
3262;DHT22;1643;47.746;9.000;2024-02-21T07:08:35;5.60;99.90
3262;DHT22;1643;47.746;9.000;2024-02-21T07:11:00;5.60;99.90
3262;DHT22;1643;47.746;9.000;2024-02-21T07:13:26;5.70;99.90
3262;DHT22;1643;47.746;9.000;2024-02-21T07:15:51;5.70;99.90
3262;DHT22;1643;47.746;9.000;2024-02-21T07:18:17;5.60;99.90
3262;DHT22;1643;47.746;9.000;2024-02-21T07:20:43;5.60;99.90
3262;DHT22;1643;47.746;9.000;2024-02-21T07:23:09;5.50;99.90
3262;DHT22;1643;47.746;9.000;2024-02-21T07:25:34;5.60;99.90
3262;DHT22;1643;47.746;9.000;2024-02-21T07:28:00;5.60;99.90
3262;DHT22;1643;47.746;9.000;2024-02-21T07:30:26;5.60;99.90
3262;DHT22;1643;47.746;9.000;2024-02-21T07:32:51;5.50;99.90
3262;DHT22;1643;47.746;9.000;2024-02-21T07:35:18;5.60;99.90
3262;DHT22;1643;47.746;9.000;2024-02-21T07:37:43;5.70;99.90
3262;DHT22;1643;47.746;9.000;2024-02-21T07:40:13;5.70;99.90
3262;DHT22;1643;47.746;9.000;2024-02-21T07:42:40;5.70;99.90
3262;DHT22;1643;47.746;9.000;2024-02-21T07:45:07;5.80;99.90
3262;DHT22;1643;47.746;9.000;2024-02-21T07:47:32;5.90;99.90
3262;DHT22;1643;47.746;9.000;2024-02-21T07:49:58;6.00;99.90
3262;DHT22;1643;47.746;9.000;2024-02-21T07:52:24;6.10;99.90
3262;DHT22;1643;47.746;9.000;2024-02-21T07:54:50;6.20;99.90
3262;DHT22;1643;47.746;9.000;2024-02-21T07:57:16;6.20;99.90
3262;DHT22;1643;47.746;9.000;2024-02-21T07:59:41;6.30;99.90
3262;DHT22;1643;47.746;9.000;2024-02-21T08:02:07;6.40;99.90
3262;DHT22;1643;47.746;9.000;2024-02-21T08:04:33;6.50;99.90
3262;DHT22;1643;47.746;9.000;2024-02-21T08:06:59;6.60;99.90
3262;DHT22;1643;47.746;9.000;2024-02-21T08:09:28;6.70;99.90
3262;DHT22;1643;47.746;9.000;2024-02-21T08:11:54;6.80;99.90
3262;DHT22;1643;47.746;9.000;2024-02-21T08:14:21;6.90;99.90
3262;DHT22;1643;47.746;9.000;2024-02-21T08:16:47;7.00;99.90
3262;DHT22;1643;47.746;9.000;2024-02-21T08:19:13;7.00;99.90
3262;DHT22;1643;47.746;9.000;2024-02-21T08:21:38;7.00;99.90
3262;DHT22;1643;47.746;9.000;2024-02-21T08:24:05;6.90;99.90
3262;DHT22;1643;47.746;9.000;2024-02-21T08:26:30;7.00;99.90
3262;DHT22;1643;47.746;9.000;2024-02-21T08:29:00;6.90;99.90
3262;DHT22;1643;47.746;9.000;2024-02-21T08:31:26;7.00;99.90
3262;DHT22;1643;47.746;9.000;2024-02-21T08:34:00;7.00;99.90
3262;DHT22;1643;47.746;9.000;2024-02-21T08:36:28;7.00;99.90
3262;DHT22;1643;47.746;9.000;2024-02-21T08:38:55;6.90;99.90
3262;DHT22;1643;47.746;9.000;2024-02-21T08:41:20;7.10;99.90
3262;DHT22;1643;47.746;9.000;2024-02-21T08:43:49;7.10;99.90
3262;DHT22;1643;47.746;9.000;2024-02-21T08:46:14;7.20;99.90
3262;DHT22;1643;47.746;9.000;2024-02-21T08:48:40;7.40;99.90
3262;DHT22;1643;47.746;9.000;2024-02-21T08:51:06;7.60;99.90
3262;DHT22;1643;47.746;9.000;2024-02-21T08:53:32;7.70;99.90
3262;DHT22;1643;47.746;9.000;2024-02-21T08:55:58;7.70;99.90
3262;DHT22;1643;47.746;9.000;2024-02-21T08:58:24;7.90;99.90
3262;DHT22;1643;47.746;9.000;2024-02-21T09:00:52;8.00;99.90
3262;DHT22;1643;47.746;9.000;2024-02-21T09:03:17;8.10;99.90
3262;DHT22;1643;47.746;9.000;2024-02-21T09:05:45;8.10;99.90
3262;DHT22;1643;47.746;9.000;2024-02-21T09:08:12;8.10;99.90
3262;DHT22;1643;47.746;9.000;2024-02-21T09:10:37;8.20;99.90
3262;DHT22;1643;47.746;9.000;2024-02-21T09:13:03;8.10;99.90
3262;DHT22;1643;47.746;9.000;2024-02-21T09:15:29;8.00;99.90
3262;DHT22;1643;47.746;9.000;2024-02-21T09:17:54;8.10;99.90
3262;DHT22;1643;47.746;9.000;2024-02-21T09:20:20;8.20;99.90
3262;DHT22;1643;47.746;9.000;2024-02-21T09:22:46;8.30;99.90
3262;DHT22;1643;47.746;9.000;2024-02-21T09:25:11;8.30;99.90
3262;DHT22;1643;47.746;9.000;2024-02-21T09:27:40;8.30;99.90
3262;DHT22;1643;47.746;9.000;2024-02-21T09:30:06;8.40;99.90
3262;DHT22;1643;47.746;9.000;2024-02-21T09:32:32;8.60;99.90
3262;DHT22;1643;47.746;9.000;2024-02-21T09:34:58;8.60;99.90
3262;DHT22;1643;47.746;9.000;2024-02-21T09:37:24;8.70;99.90
3262;DHT22;1643;47.746;9.000;2024-02-21T09:39:49;8.80;99.90
3262;DHT22;1643;47.746;9.000;2024-02-21T09:42:20;8.80;99.90
3262;DHT22;1643;47.746;9.000;2024-02-21T09:44:46;8.80;99.90
3262;DHT22;1643;47.746;9.000;2024-02-21T09:47:23;8.80;99.90
3262;DHT22;1643;47.746;9.000;2024-02-21T09:49:50;8.70;99.90
3262;DHT22;1643;47.746;9.000;2024-02-21T09:52:17;8.70;99.90
3262;DHT22;1643;47.746;9.000;2024-02-21T09:54:44;8.70;99.90
3262;DHT22;1643;47.746;9.000;2024-02-21T09:57:11;9.00;99.90
3262;DHT22;1643;47.746;9.000;2024-02-21T09:59:37;9.30;99.90
3262;DHT22;1643;47.746;9.000;2024-02-21T10:02:03;9.40;99.90
3262;DHT22;1643;47.746;9.000;2024-02-21T10:04:30;9.70;99.90
3262;DHT22;1643;47.746;9.000;2024-02-21T10:06:57;9.80;99.90
3262;DHT22;1643;47.746;9.000;2024-02-21T10:09:27;9.90;99.90
3262;DHT22;1643;47.746;9.000;2024-02-21T10:11:54;10.10;99.90
3262;DHT22;1643;47.746;9.000;2024-02-21T10:14:20;10.00;99.90
3262;DHT22;1643;47.746;9.000;2024-02-21T10:16:57;10.10;99.90
3262;DHT22;1643;47.746;9.000;2024-02-21T10:19:25;10.20;99.90
3262;DHT22;1643;47.746;9.000;2024-02-21T10:22:10;10.40;99.90
3262;DHT22;1643;47.746;9.000;2024-02-21T10:24:36;10.30;99.90
3262;DHT22;1643;47.746;9.000;2024-02-21T10:27:07;10.40;99.90
3262;DHT22;1643;47.746;9.000;2024-02-21T10:29:39;10.30;99.90
3262;DHT22;1643;47.746;9.000;2024-02-21T10:32:10;10.20;99.90
3262;DHT22;1643;47.746;9.000;2024-02-21T10:34:37;10.20;99.90
3262;DHT22;1643;47.746;9.000;2024-02-21T10:37:09;10.30;99.90
3262;DHT22;1643;47.746;9.000;2024-02-21T10:39:38;10.60;99.90
3262;DHT22;1643;47.746;9.000;2024-02-21T10:42:05;10.80;99.90
3262;DHT22;1643;47.746;9.000;2024-02-21T10:44:33;10.90;99.90
3262;DHT22;1643;47.746;9.000;2024-02-21T10:46:59;10.90;99.90
3262;DHT22;1643;47.746;9.000;2024-02-21T10:49:26;10.80;99.90
3262;DHT22;1643;47.746;9.000;2024-02-21T10:52:18;10.80;99.90
3262;DHT22;1643;47.746;9.000;2024-02-21T10:55:00;10.70;99.90
3262;DHT22;1643;47.746;9.000;2024-02-21T10:57:29;10.80;99.90
3262;DHT22;1643;47.746;9.000;2024-02-21T10:59:58;10.90;99.90
3262;DHT22;1643;47.746;9.000;2024-02-21T11:02:25;10.80;99.90
3262;DHT22;1643;47.746;9.000;2024-02-21T11:04:52;10.90;99.90
3262;DHT22;1643;47.746;9.000;2024-02-21T11:07:19;11.00;99.90
3262;DHT22;1643;47.746;9.000;2024-02-21T11:09:52;11.10;99.90
3262;DHT22;1643;47.746;9.000;2024-02-21T11:12:21;11.10;99.90
3262;DHT22;1643;47.746;9.000;2024-02-21T11:14:47;11.20;99.90
3262;DHT22;1643;47.746;9.000;2024-02-21T11:17:20;11.20;99.90
3262;DHT22;1643;47.746;9.000;2024-02-21T11:19:52;11.20;99.90
3262;DHT22;1643;47.746;9.000;2024-02-21T11:22:18;11.20;99.90
3262;DHT22;1643;47.746;9.000;2024-02-21T11:24:45;11.30;99.90
3262;DHT22;1643;47.746;9.000;2024-02-21T11:27:22;11.30;99.90
3262;DHT22;1643;47.746;9.000;2024-02-21T11:29:58;11.40;99.90
3262;DHT22;1643;47.746;9.000;2024-02-21T11:32:26;11.40;99.90
3262;DHT22;1643;47.746;9.000;2024-02-21T11:37:21;11.80;99.90
3262;DHT22;1643;47.746;9.000;2024-02-21T11:39:50;12.10;99.90
3262;DHT22;1643;47.746;9.000;2024-02-21T11:42:15;12.30;99.90
3262;DHT22;1643;47.746;9.000;2024-02-21T11:44:41;12.40;99.90
3262;DHT22;1643;47.746;9.000;2024-02-21T11:47:08;12.60;99.90
3262;DHT22;1643;47.746;9.000;2024-02-21T11:49:38;12.60;99.90
3262;DHT22;1643;47.746;9.000;2024-02-21T11:52:05;12.70;99.90
3262;DHT22;1643;47.746;9.000;2024-02-21T11:54:31;12.80;99.90
3262;DHT22;1643;47.746;9.000;2024-02-21T11:56:57;13.30;99.90
3262;DHT22;1643;47.746;9.000;2024-02-21T11:59:23;14.10;99.90
3262;DHT22;1643;47.746;9.000;2024-02-21T12:01:49;14.30;99.90
3262;DHT22;1643;47.746;9.000;2024-02-21T12:04:17;14.20;99.90
3262;DHT22;1643;47.746;9.000;2024-02-21T12:06:47;14.00;99.90
3262;DHT22;1643;47.746;9.000;2024-02-21T12:09:16;14.10;99.90
3262;DHT22;1643;47.746;9.000;2024-02-21T12:11:43;14.00;99.90
3262;DHT22;1643;47.746;9.000;2024-02-21T12:14:08;13.40;99.90
3262;DHT22;1643;47.746;9.000;2024-02-21T12:16:34;12.80;99.90
3262;DHT22;1643;47.746;9.000;2024-02-21T12:19:02;12.40;99.90
3262;DHT22;1643;47.746;9.000;2024-02-21T12:21:33;12.40;99.90
3262;DHT22;1643;47.746;9.000;2024-02-21T12:24:14;12.50;99.90
3262;DHT22;1643;47.746;9.000;2024-02-21T12:26:41;12.50;99.90
3262;DHT22;1643;47.746;9.000;2024-02-21T12:29:07;12.60;99.90
3262;DHT22;1643;47.746;9.000;2024-02-21T12:31:37;12.60;99.90
3262;DHT22;1643;47.746;9.000;2024-02-21T12:34:03;12.40;99.90
3262;DHT22;1643;47.746;9.000;2024-02-21T12:36:31;12.40;99.90
3262;DHT22;1643;47.746;9.000;2024-02-21T12:38:57;12.40;99.90
3262;DHT22;1643;47.746;9.000;2024-02-21T12:41:22;12.50;99.90
3262;DHT22;1643;47.746;9.000;2024-02-21T12:43:48;12.50;99.90
3262;DHT22;1643;47.746;9.000;2024-02-21T12:46:13;12.60;99.90
3262;DHT22;1643;47.746;9.000;2024-02-21T12:48:39;12.60;99.90
3262;DHT22;1643;47.746;9.000;2024-02-21T12:51:05;12.60;99.90
3262;DHT22;1643;47.746;9.000;2024-02-21T12:53:31;12.70;99.90
3262;DHT22;1643;47.746;9.000;2024-02-21T12:55:57;12.70;99.90
3262;DHT22;1643;47.746;9.000;2024-02-21T12:58:22;12.90;99.90
3262;DHT22;1643;47.746;9.000;2024-02-21T13:00:48;12.90;99.90
3262;DHT22;1643;47.746;9.000;2024-02-21T13:03:14;12.90;99.90
3262;DHT22;1643;47.746;9.000;2024-02-21T13:05:40;12.80;99.90
3262;DHT22;1643;47.746;9.000;2024-02-21T13:08:14;12.80;99.90
3262;DHT22;1643;47.746;9.000;2024-02-21T13:10:40;12.70;99.90
3262;DHT22;1643;47.746;9.000;2024-02-21T13:13:06;12.70;99.90
3262;DHT22;1643;47.746;9.000;2024-02-21T13:15:31;12.70;99.90
3262;DHT22;1643;47.746;9.000;2024-02-21T13:17:57;12.80;99.90
3262;DHT22;1643;47.746;9.000;2024-02-21T13:20:27;12.90;99.90
3262;DHT22;1643;47.746;9.000;2024-02-21T13:22:53;12.90;99.90
3262;DHT22;1643;47.746;9.000;2024-02-21T13:25:19;12.90;99.90
3262;DHT22;1643;47.746;9.000;2024-02-21T13:27:47;12.90;99.90
3262;DHT22;1643;47.746;9.000;2024-02-21T13:30:14;13.00;99.90
3262;DHT22;1643;47.746;9.000;2024-02-21T13:32:41;13.10;99.90
3262;DHT22;1643;47.746;9.000;2024-02-21T13:35:08;13.10;99.90
3262;DHT22;1643;47.746;9.000;2024-02-21T13:37:34;13.20;99.90
3262;DHT22;1643;47.746;9.000;2024-02-21T13:40:00;13.20;99.90
3262;DHT22;1643;47.746;9.000;2024-02-21T13:42:26;13.30;99.90
3262;DHT22;1643;47.746;9.000;2024-02-21T13:44:53;13.40;99.90
3262;DHT22;1643;47.746;9.000;2024-02-21T13:47:19;13.30;99.90
3262;DHT22;1643;47.746;9.000;2024-02-21T13:49:47;13.40;99.90
3262;DHT22;1643;47.746;9.000;2024-02-21T13:52:13;13.50;99.90
3262;DHT22;1643;47.746;9.000;2024-02-21T13:54:40;13.40;99.90
3262;DHT22;1643;47.746;9.000;2024-02-21T13:57:05;13.50;99.90
3262;DHT22;1643;47.746;9.000;2024-02-21T13:59:31;13.50;99.90
3262;DHT22;1643;47.746;9.000;2024-02-21T14:01:59;13.50;99.90
3262;DHT22;1643;47.746;9.000;2024-02-21T14:04:24;13.50;99.90
3262;DHT22;1643;47.746;9.000;2024-02-21T14:06:50;13.50;99.90
3262;DHT22;1643;47.746;9.000;2024-02-21T14:09:16;13.50;99.90
3262;DHT22;1643;47.746;9.000;2024-02-21T14:11:42;13.40;99.90
3262;DHT22;1643;47.746;9.000;2024-02-21T14:14:08;13.40;99.90
3262;DHT22;1643;47.746;9.000;2024-02-21T14:16:33;13.50;99.90
3262;DHT22;1643;47.746;9.000;2024-02-21T14:18:59;13.50;99.90
3262;DHT22;1643;47.746;9.000;2024-02-21T14:21:25;13.50;99.90
3262;DHT22;1643;47.746;9.000;2024-02-21T14:23:51;13.50;99.90
3262;DHT22;1643;47.746;9.000;2024-02-21T14:26:18;13.40;99.90
3262;DHT22;1643;47.746;9.000;2024-02-21T14:28:44;13.50;99.90
3262;DHT22;1643;47.746;9.000;2024-02-21T14:31:11;13.50;99.90
3262;DHT22;1643;47.746;9.000;2024-02-21T14:33:37;13.50;99.90
3262;DHT22;1643;47.746;9.000;2024-02-21T14:36:03;13.50;99.80
3262;DHT22;1643;47.746;9.000;2024-02-21T14:38:29;13.40;99.80
3262;DHT22;1643;47.746;9.000;2024-02-21T14:40:55;13.30;99.90
3262;DHT22;1643;47.746;9.000;2024-02-21T14:43:20;13.30;99.70
3262;DHT22;1643;47.746;9.000;2024-02-21T14:45:49;13.20;99.80
3262;DHT22;1643;47.746;9.000;2024-02-21T14:48:15;13.20;99.90
3262;DHT22;1643;47.746;9.000;2024-02-21T14:50:41;13.10;99.90
3262;DHT22;1643;47.746;9.000;2024-02-21T14:53:10;13.00;99.90
3262;DHT22;1643;47.746;9.000;2024-02-21T14:55:36;12.90;99.80
3262;DHT22;1643;47.746;9.000;2024-02-21T14:58:01;12.80;99.70
3262;DHT22;1643;47.746;9.000;2024-02-21T15:00:27;12.70;99.90
3262;DHT22;1643;47.746;9.000;2024-02-21T15:02:59;12.80;99.90
3262;DHT22;1643;47.746;9.000;2024-02-21T15:05:25;12.70;99.90
3262;DHT22;1643;47.746;9.000;2024-02-21T15:07:52;12.80;99.90
3262;DHT22;1643;47.746;9.000;2024-02-21T15:10:18;12.80;99.90
3262;DHT22;1643;47.746;9.000;2024-02-21T15:12:46;12.70;99.90
3262;DHT22;1643;47.746;9.000;2024-02-21T15:15:13;12.70;99.80
3262;DHT22;1643;47.746;9.000;2024-02-21T15:17:39;12.70;99.90
3262;DHT22;1643;47.746;9.000;2024-02-21T15:20:05;12.70;99.90
3262;DHT22;1643;47.746;9.000;2024-02-21T15:22:34;12.60;99.80
3262;DHT22;1643;47.746;9.000;2024-02-21T15:25:01;12.60;99.70
3262;DHT22;1643;47.746;9.000;2024-02-21T15:27:27;12.50;99.80
3262;DHT22;1643;47.746;9.000;2024-02-21T15:29:54;12.40;99.90
3262;DHT22;1643;47.746;9.000;2024-02-21T15:32:20;12.40;99.90
3262;DHT22;1643;47.746;9.000;2024-02-21T15:34:46;12.40;99.90
3262;DHT22;1643;47.746;9.000;2024-02-21T15:37:12;12.30;99.90
3262;DHT22;1643;47.746;9.000;2024-02-21T15:39:41;12.40;99.90
3262;DHT22;1643;47.746;9.000;2024-02-21T15:42:07;12.40;99.90
3262;DHT22;1643;47.746;9.000;2024-02-21T15:44:32;12.30;99.90
3262;DHT22;1643;47.746;9.000;2024-02-21T15:46:58;12.40;99.90
3262;DHT22;1643;47.746;9.000;2024-02-21T15:49:24;12.40;99.90
3262;DHT22;1643;47.746;9.000;2024-02-21T15:51:50;12.40;99.90
3262;DHT22;1643;47.746;9.000;2024-02-21T15:54:16;12.40;99.90
3262;DHT22;1643;47.746;9.000;2024-02-21T15:56:44;12.40;99.90
3262;DHT22;1643;47.746;9.000;2024-02-21T15:59:13;12.40;99.90
3262;DHT22;1643;47.746;9.000;2024-02-21T16:01:39;12.40;99.90
3262;DHT22;1643;47.746;9.000;2024-02-21T16:04:06;12.40;99.90
3262;DHT22;1643;47.746;9.000;2024-02-21T16:06:32;12.30;99.90
3262;DHT22;1643;47.746;9.000;2024-02-21T16:08:58;12.30;99.90
3262;DHT22;1643;47.746;9.000;2024-02-21T16:11:24;12.30;99.90